Time;durP1;ratioP1;P1;durP2;ratioP2;P2;SDS_P1;SDS_P2;PMS_P1;PMS_P2;Temp;Humidity;BMP_temperature;BMP_pressure;BME280_temperature;BME280_humidity;BME280_pressure;Samples;Min_cycle;Max_cycle;Signal;HPM_P1;HPM_P2
2021/01/14 00:01:44;;;;;;;12.03;7.37;;;;;;;-5.08;75.79;91797.08;1788856;80;21222;-74
2021/01/14 00:04:11;;;;;;;9.93;6.03;;;;;;;-5.07;75.63;91787.27;1798713;79;21191;-74
2021/01/14 00:06:39;;;;;;;8.83;5.73;;;;;;;-5.06;75.94;91793.55;1743172;82;21691;-74
2021/01/14 00:09:07;;;;;;;9.20;5.73;;;;;;;-5.05;75.88;91804.92;1759699;79;21190;-74
2021/01/14 00:11:34;;;;;;;9.07;5.77;;;;;;;-5.05;75.98;91801.71;1745365;82;21372;-74
2021/01/14 00:14:05;;;;;;;7.87;5.00;;;;;;;-5.03;76.20;91798.73;1769743;80;21184;-74
2021/01/14 00:16:36;;;;;;;11.90;6.60;;;;;;;-5.01;76.25;91785.34;1711893;78;22571;-74
2021/01/14 00:19:05;;;;;;;8.97;5.77;;;;;;;-4.99;75.93;91782.38;1693947;83;21248;-73
2021/01/14 00:21:43;;;;;;;10.67;5.90;;;;;;;-4.98;75.53;91786.00;1737558;80;21100;-73
2021/01/14 00:24:11;;;;;;;9.87;5.83;;;;;;;-4.97;75.46;91799.47;1722936;82;21420;-74
2021/01/14 00:26:40;;;;;;;10.27;6.83;;;;;;;-4.98;75.34;91791.30;1789412;79;21171;-73
2021/01/14 00:29:08;;;;;;;10.33;6.23;;;;;;;-4.94;75.46;91784.21;1773682;80;21548;-74
2021/01/14 00:31:35;;;;;;;12.47;7.60;;;;;;;-4.89;75.29;91787.96;1739885;80;21237;-74
2021/01/14 00:34:03;;;;;;;11.10;6.70;;;;;;;-4.85;75.25;91781.95;1792181;78;21159;-73
2021/01/14 00:39:23;;;;;;;11.83;6.13;;;;;;;-4.83;75.29;91785.05;1782131;80;21650;-74
2021/01/14 00:41:52;;;;;;;11.50;6.60;;;;;;;-4.86;75.45;91789.15;1783552;80;21212;-74
2021/01/14 00:44:20;;;;;;;8.07;5.00;;;;;;;-4.87;75.73;91802.75;1744378;82;21207;-74
2021/01/14 00:46:48;;;;;;;8.53;5.50;;;;;;;-4.89;75.44;91800.42;1746418;80;21408;-75
2021/01/14 00:49:15;;;;;;;5.80;4.80;;;;;;;-4.86;75.50;91795.78;1694932;83;21203;-75
2021/01/14 00:51:43;;;;;;;6.83;5.00;;;;;;;-4.85;75.78;91788.59;1767994;80;21179;-72
2021/01/14 00:54:11;;;;;;;9.40;5.50;;;;;;;-4.85;76.23;91792.03;1772500;80;21193;-72
2021/01/14 00:56:39;;;;;;;8.07;5.33;;;;;;;-4.86;76.60;91789.15;1772261;80;21837;-71
2021/01/14 00:59:08;;;;;;;9.13;5.40;;;;;;;-4.87;76.17;91789.50;1773233;78;21216;-75
2021/01/14 01:01:41;;;;;;;11.07;5.63;;;;;;;-4.89;76.63;91781.86;1782163;80;21209;-72
2021/01/14 01:04:10;;;;;;;11.13;6.13;;;;;;;-4.91;76.76;91791.49;1765885;79;21900;-73
2021/01/14 01:06:41;;;;;;;8.40;5.70;;;;;;;-4.96;77.61;91775.84;1736591;80;21442;-73
2021/01/14 01:09:10;;;;;;;9.33;5.87;;;;;;;-5.00;77.49;91788.77;1767110;79;21299;-73
2021/01/14 01:11:38;;;;;;;11.83;6.90;;;;;;;-5.02;77.82;91794.97;1804191;79;21195;-73
2021/01/14 01:14:05;;;;;;;10.27;6.10;;;;;;;-5.06;78.11;91782.95;1832888;78;21143;-73
2021/01/14 01:16:33;;;;;;;9.07;5.13;;;;;;;-5.09;78.22;91790.23;1774802;78;21179;-72
2021/01/14 01:19:01;;;;;;;11.73;7.57;;;;;;;-5.10;78.77;91791.91;1752510;81;21212;-73
2021/01/14 01:21:28;;;;;;;10.27;6.57;;;;;;;-5.13;78.89;91778.77;1768442;78;21644;-75
2021/01/14 01:23:55;;;;;;;13.67;6.67;;;;;;;-5.12;79.03;91775.01;1747545;82;21214;-74
2021/01/14 01:26:23;;;;;;;11.10;5.60;;;;;;;-5.13;79.15;91774.80;1748879;81;21657;-73
2021/01/14 01:28:50;;;;;;;13.63;7.17;;;;;;;-5.14;79.07;91775.36;1739221;81;21211;-73
2021/01/14 01:31:19;;;;;;;13.83;6.90;;;;;;;-5.13;79.04;91770.83;1726658;83;21227;-74
2021/01/14 01:33:47;;;;;;;8.90;5.20;;;;;;;-5.12;79.41;91767.83;1720388;82;21236;-74
2021/01/14 01:36:14;;;;;;;8.37;5.23;;;;;;;-5.13;79.71;91775.56;1743488;82;21504;-74
2021/01/14 01:38:46;;;;;;;8.73;5.20;;;;;;;-5.15;80.02;91774.38;1723016;83;21206;-74
2021/01/14 01:41:14;;;;;;;11.57;6.37;;;;;;;-5.17;79.50;91767.31;1722840;81;22240;-75
2021/01/14 01:43:42;;;;;;;17.43;8.50;;;;;;;-5.19;79.56;91765.53;1728713;82;21406;-74
2021/01/14 01:46:09;;;;;;;9.33;5.73;;;;;;;-5.19;79.38;91763.69;1744087;81;21222;-72
2021/01/14 01:48:37;;;;;;;10.87;5.73;;;;;;;-5.18;79.44;91763.89;1722122;83;21191;-75
2021/01/14 01:51:07;;;;;;;10.07;5.67;;;;;;;-5.16;79.18;91768.84;1721781;83;21159;-75
2021/01/14 01:53:35;;;;;;;8.63;5.43;;;;;;;-5.16;79.31;91760.89;1723431;83;21651;-74
2021/01/14 01:56:04;;;;;;;8.60;5.53;;;;;;;-5.15;79.20;91761.89;1724764;79;21288;-75
2021/01/14 01:58:33;;;;;;;7.57;5.33;;;;;;;-5.14;79.08;91771.38;1720240;83;21191;-74
2021/01/14 02:01:00;;;;;;;9.90;5.77;;;;;;;-5.14;78.81;91762.11;1704005;81;21537;-75
2021/01/14 02:03:32;;;;;;;9.50;5.83;;;;;;;-5.13;78.76;91750.39;1723531;83;21756;-75
2021/01/14 02:06:00;;;;;;;6.37;4.30;;;;;;;-5.10;78.71;91751.59;1745194;82;21198;-75
2021/01/14 02:08:40;;;;;;;10.20;5.10;;;;;;;-5.08;78.40;91749.92;1711689;83;22519;-75
2021/01/14 02:11:31;;;;;;;6.87;4.27;;;;;;;-5.04;77.91;91748.14;1773691;80;21214;-73
2021/01/14 02:14:13;;;;;;;8.50;5.20;;;;;;;-5.03;78.00;91749.70;1712395;81;21254;-75
2021/01/14 02:16:43;;;;;;;6.33;4.57;;;;;;;-5.02;77.77;91744.05;1736633;81;21127;-73
2021/01/14 02:19:20;;;;;;;8.47;5.10;;;;;;;-5.01;77.21;91752.20;1738501;81;21194;-74
2021/01/14 02:21:49;;;;;;;5.23;3.83;;;;;;;-5.00;77.38;91748.47;1774819;78;22595;-75
2021/01/14 02:24:54;;;;;;;10.40;5.80;;;;;;;-4.97;77.24;91752.30;1793430;79;21168;-74
2021/01/14 02:27:22;;;;;;;8.40;4.63;;;;;;;-4.96;76.84;91745.36;1784371;79;21461;-74
2021/01/14 02:29:51;;;;;;;6.43;4.33;;;;;;;-4.94;77.33;91741.80;1706737;79;21689;-74
2021/01/14 02:32:19;;;;;;;8.00;4.67;;;;;;;-4.96;77.00;91739.28;1780414;79;21219;-75
2021/01/14 02:34:49;;;;;;;5.90;3.80;;;;;;;-4.95;76.96;91736.84;1798369;79;21594;-76
2021/01/14 02:37:17;;;;;;;8.67;4.37;;;;;;;-4.94;76.92;91734.40;1760761;79;21712;-74
2021/01/14 02:39:45;;;;;;;11.50;5.90;;;;;;;-4.92;76.78;91735.61;1732385;81;21179;-73
2021/01/14 02:42:12;;;;;;;6.80;4.63;;;;;;;-4.89;76.45;91730.95;1729294;81;21180;-73
2021/01/14 02:44:41;;;;;;;9.50;5.27;;;;;;;-4.87;76.41;91730.61;1748886;81;21509;-74
2021/01/14 02:47:11;;;;;;;7.37;4.83;;;;;;;-4.85;76.43;91729.72;1804569;78;22290;-73
2021/01/14 02:49:51;;;;;;;6.57;4.47;;;;;;;-4.84;76.49;91724.63;1770155;80;21700;-74
2021/01/14 02:52:18;;;;;;;6.83;4.90;;;;;;;-4.84;76.28;91714.02;1756818;80;21171;-73
2021/01/14 02:54:46;;;;;;;7.03;4.80;;;;;;;-4.81;76.42;91713.88;1768901;78;21247;-74
2021/01/14 02:57:13;;;;;;;7.23;4.40;;;;;;;-4.80;76.66;91710.14;1737150;79;21191;-74
2021/01/14 02:59:45;;;;;;;6.37;4.27;;;;;;;-4.79;76.24;91714.32;1820499;78;21245;-74
2021/01/14 03:02:13;;;;;;;7.53;4.57;;;;;;;-4.76;76.31;91707.02;1773306;80;21195;-74
2021/01/14 03:04:41;;;;;;;6.83;4.30;;;;;;;-4.76;76.59;91713.08;1736296;81;21214;-73
2021/01/14 03:07:08;;;;;;;9.73;6.20;;;;;;;-4.76;76.51;91705.12;1772042;79;21148;-72
2021/01/14 03:09:36;;;;;;;7.70;5.10;;;;;;;-4.75;76.59;91704.01;1758053;80;21187;-74
2021/01/14 03:12:04;;;;;;;7.90;5.13;;;;;;;-4.77;76.94;91705.48;1778222;80;21215;-74
2021/01/14 03:14:31;;;;;;;8.90;5.60;;;;;;;-4.77;76.96;91700.95;1798356;79;21195;-75
2021/01/14 03:16:59;;;;;;;7.63;5.20;;;;;;;-4.78;77.44;91694.64;1788270;79;21166;-74
2021/01/14 03:19:26;;;;;;;8.17;5.10;;;;;;;-4.80;77.67;91697.64;1789487;79;21228;-73
2021/01/14 03:21:59;;;;;;;5.97;4.37;;;;;;;-4.79;77.51;91697.85;1794908;78;21350;-74
2021/01/14 03:24:28;;;;;;;7.30;4.67;;;;;;;-4.79;77.08;91683.83;1781823;80;21257;-74
2021/01/14 03:26:56;;;;;;;6.17;4.30;;;;;;;-4.80;77.15;91680.41;1785484;80;21220;-74
2021/01/14 03:29:24;;;;;;;6.30;4.73;;;;;;;-4.79;77.06;91675.31;1751697;80;21210;-74
2021/01/14 03:31:51;;;;;;;7.17;4.30;;;;;;;-4.80;77.16;91677.76;1734756;81;21156;-73
2021/01/14 03:34:19;;;;;;;5.53;3.57;;;;;;;-4.81;77.15;91672.78;1724088;80;21236;-74
2021/01/14 03:36:56;;;;;;;4.47;3.33;;;;;;;-4.82;76.94;91665.94;1789181;80;22157;-74
2021/01/14 03:39:25;;;;;;;7.07;4.43;;;;;;;-4.82;76.19;91664.61;1763487;81;21190;-73
2021/01/14 03:41:53;;;;;;;4.10;3.70;;;;;;;-4.81;75.62;91664.82;1800319;79;21151;-74
2021/01/14 03:44:21;;;;;;;5.50;4.00;;;;;;;-4.79;75.53;91655.42;1784942;79;21177;-74
2021/01/14 03:46:50;;;;;;;6.70;4.27;;;;;;;-4.79;74.82;91656.75;1789576;79;21618;-74
2021/01/14 03:49:22;;;;;;;7.80;4.80;;;;;;;-4.78;74.46;91662.81;1794559;78;21318;-74
2021/01/14 03:51:53;;;;;;;7.23;4.50;;;;;;;-4.76;74.68;91662.70;1780404;79;21196;-74
2021/01/14 03:54:22;;;;;;;7.63;3.93;;;;;;;-4.77;74.89;91657.75;1794936;79;21177;-74
2021/01/14 03:56:50;;;;;;;5.07;3.53;;;;;;;-4.79;74.56;91650.12;1785683;79;21357;-74
2021/01/14 03:59:18;;;;;;;8.13;4.53;;;;;;;-4.77;73.78;91653.21;1790544;79;21155;-74
2021/01/14 04:01:45;;;;;;;5.37;3.90;;;;;;;-4.73;73.74;91654.63;1787876;79;21352;-74
2021/01/14 04:04:13;;;;;;;4.87;3.57;;;;;;;-4.73;74.19;91658.60;1782340;79;21408;-74
2021/01/14 04:06:41;;;;;;;5.70;3.53;;;;;;;-4.75;73.53;91657.59;1794358;79;21207;-74
2021/01/14 04:09:09;;;;;;;5.43;4.27;;;;;;;-4.74;73.19;91655.72;1779338;79;21662;-74
2021/01/14 04:11:37;;;;;;;6.03;3.73;;;;;;;-4.77;72.72;91651.88;1794305;79;21183;-74
2021/01/14 04:14:04;;;;;;;6.23;4.10;;;;;;;-4.78;73.30;91651.66;1765087;78;22194;-74
2021/01/14 04:16:32;;;;;;;5.17;3.87;;;;;;;-4.80;73.18;91651.23;1744558;79;21445;-74
2021/01/14 04:18:59;;;;;;;4.33;3.23;;;;;;;-4.82;73.17;91648.70;1771987;79;21176;-74
2021/01/14 04:21:27;;;;;;;5.50;3.97;;;;;;;-4.80;73.04;91649.15;1737549;81;21499;-72
2021/01/14 04:23:54;;;;;;;5.33;3.80;;;;;;;-4.80;72.95;91653.89;1803190;78;21174;-74
2021/01/14 04:26:22;;;;;;;4.70;3.90;;;;;;;-4.80;73.31;91649.91;1781313;77;21405;-74
2021/01/14 04:28:49;;;;;;;8.87;4.90;;;;;;;-4.81;73.35;91648.37;1778743;79;21409;-74
2021/01/14 04:31:17;;;;;;;6.80;4.53;;;;;;;-4.83;73.25;91651.92;1772457;79;21272;-75
2021/01/14 04:33:46;;;;;;;6.17;4.20;;;;;;;-4.85;73.52;91642.22;1727714;83;21276;-73
2021/01/14 04:36:15;;;;;;;4.97;3.80;;;;;;;-4.88;73.58;91645.55;1786885;80;21139;-73
2021/01/14 04:38:43;;;;;;;5.27;3.77;;;;;;;-4.91;74.10;91654.95;1731989;81;21788;-75
2021/01/14 04:41:11;;;;;;;5.90;3.80;;;;;;;-4.92;74.31;91645.47;1765778;81;21185;-73
2021/01/14 04:43:38;;;;;;;5.37;3.70;;;;;;;-4.92;74.15;91646.03;1746112;78;21166;-73
2021/01/14 04:46:08;;;;;;;6.43;4.70;;;;;;;-4.92;74.26;91650.00;1821366;77;21576;-73
2021/01/14 04:48:47;;;;;;;5.60;3.87;;;;;;;-4.93;74.29;91651.89;1847339;77;21184;-74
2021/01/14 04:51:17;;;;;;;5.30;3.70;;;;;;;-4.90;74.60;91640.58;1786826;78;21239;-73
2021/01/14 04:53:48;;;;;;;4.33;3.47;;;;;;;-4.90;74.36;91639.81;1746263;79;21165;-75
2021/01/14 04:56:18;;;;;;;6.60;4.37;;;;;;;-4.88;74.70;91645.55;1718942;82;21700;-75
2021/01/14 04:58:47;;;;;;;9.90;5.60;;;;;;;-4.87;74.53;91632.50;1695962;83;21231;-74
2021/01/14 05:01:19;;;;;;;5.87;3.63;;;;;;;-4.86;74.46;91634.03;1703522;83;21199;-74
2021/01/14 05:03:49;;;;;;;5.47;3.33;;;;;;;-4.83;74.43;91633.36;1743009;82;21379;-75
2021/01/14 05:06:20;;;;;;;5.30;3.97;;;;;;;-4.80;74.62;91637.21;1745233;80;21169;-75
2021/01/14 05:08:56;;;;;;;4.73;3.47;;;;;;;-4.78;74.23;91633.65;1779637;80;21258;-74
2021/01/14 05:11:25;;;;;;;6.93;4.90;;;;;;;-4.78;73.63;91617.17;1783808;79;21231;-74
2021/01/14 05:13:54;;;;;;;9.53;5.30;;;;;;;-4.78;74.14;91614.53;1781230;78;21204;-75
2021/01/14 05:16:23;;;;;;;11.17;6.70;;;;;;;-4.78;74.30;91617.73;1775122;78;21435;-74
2021/01/14 05:18:51;;;;;;;6.10;4.27;;;;;;;-4.80;74.61;91630.02;1811155;77;21226;-75
2021/01/14 05:21:20;;;;;;;7.93;4.33;;;;;;;-4.83;74.54;91625.96;1747411;78;21239;-76
2021/01/14 05:23:48;;;;;;;7.50;4.57;;;;;;;-4.87;74.72;91629.09;1740770;82;21133;-75
2021/01/14 05:26:32;;;;;;;10.93;5.80;;;;;;;-4.90;74.91;91624.67;1741052;80;22305;-73
2021/01/14 05:29:13;;;;;;;5.17;3.20;;;;;;;-4.92;74.99;91619.52;1739556;80;21213;-75
2021/01/14 05:31:41;;;;;;;6.77;3.87;;;;;;;-4.95;74.71;91616.98;1739356;82;21330;-74
2021/01/14 05:34:09;;;;;;;5.47;3.80;;;;;;;-4.96;74.90;91612.03;1741079;82;21102;-74
2021/01/14 05:36:57;;;;;;;5.90;4.00;;;;;;;-4.93;74.79;91628.03;1743653;80;21399;-74
2021/01/14 05:39:25;;;;;;;5.60;4.10;;;;;;;-4.92;74.87;91618.19;1740751;81;21200;-74
2021/01/14 05:41:52;;;;;;;5.33;3.70;;;;;;;-4.92;75.04;91612.89;1738945;80;21373;-74
2021/01/14 05:44:22;;;;;;;6.07;3.87;;;;;;;-4.92;74.61;91620.28;1738988;80;21224;-74
2021/01/14 05:46:50;;;;;;;4.90;3.43;;;;;;;-4.92;74.76;91622.94;1682969;83;21161;-73
2021/01/14 05:49:17;;;;;;;4.03;3.57;;;;;;;-4.91;74.62;91629.00;1692237;83;21251;-74
2021/01/14 05:51:45;;;;;;;5.30;3.67;;;;;;;-4.91;74.56;91615.74;1720975;83;21265;-75
2021/01/14 05:54:12;;;;;;;5.13;3.83;;;;;;;-4.90;74.71;91618.60;1689759;82;21339;-73
2021/01/14 05:56:48;;;;;;;5.47;3.47;;;;;;;-4.90;74.58;91626.00;1733830;80;21441;-76
2021/01/14 05:59:18;;;;;;;4.67;3.50;;;;;;;-4.93;74.65;91622.73;1762530;79;21152;-75
2021/01/14 06:01:57;;;;;;;5.17;3.97;;;;;;;-4.93;74.54;91629.36;1693109;83;21436;-76
2021/01/14 06:04:26;;;;;;;5.53;3.40;;;;;;;-4.94;74.43;91619.84;1746855;81;21207;-77
2021/01/14 06:07:02;;;;;;;3.90;2.87;;;;;;;-4.93;74.36;91615.30;1806138;79;21366;-79
2021/01/14 06:09:25;;;;;;;3.87;2.97;;;;;;;-4.92;74.14;91613.66;1784716;79;21987;-77
2021/01/14 06:12:09;;;;;;;5.30;3.23;;;;;;;-4.90;74.16;91614.63;1722640;81;21662;-74
2021/01/14 06:14:37;;;;;;;6.50;4.13;;;;;;;-4.91;74.02;91608.55;1718661;82;21094;-73
2021/01/14 06:17:06;;;;;;;4.00;3.03;;;;;;;-4.91;73.92;91614.42;1777765;79;21353;-74
2021/01/14 06:19:34;;;;;;;5.97;3.70;;;;;;;-4.91;73.77;91607.23;1746885;82;21213;-74
2021/01/14 06:22:02;;;;;;;4.67;3.67;;;;;;;-4.90;73.86;91617.27;1713852;83;21226;-75
2021/01/14 06:24:35;;;;;;;4.07;3.07;;;;;;;-4.90;74.14;91617.27;1697386;83;21324;-74
2021/01/14 06:27:08;;;;;;;3.73;2.93;;;;;;;-4.91;74.51;91613.86;1728741;80;21227;-75
2021/01/14 06:29:42;;;;;;;4.30;2.93;;;;;;;-4.90;74.29;91610.65;1759457;80;21633;-75
2021/01/14 06:32:19;;;;;;;3.00;2.40;;;;;;;-4.88;74.13;91607.11;1775709;79;21361;-74
2021/01/14 06:34:51;;;;;;;3.93;2.20;;;;;;;-4.89;74.09;91613.50;1747493;80;21583;-74
2021/01/14 06:37:24;;;;;;;2.43;2.13;;;;;;;-4.87;74.13;91614.50;1777268;79;21563;-75
2021/01/14 06:39:57;;;;;;;3.00;2.30;;;;;;;-4.86;74.10;91616.80;1737067;79;21099;-74
2021/01/14 06:42:29;;;;;;;3.07;2.40;;;;;;;-4.87;73.97;91598.03;1796037;79;21095;-75
2021/01/14 06:44:59;;;;;;;3.23;2.23;;;;;;;-4.85;73.31;91607.76;1807449;79;21360;-73
2021/01/14 06:47:46;;;;;;;3.37;2.33;;;;;;;-4.83;73.79;91609.49;1725710;81;21179;-74
2021/01/14 06:50:20;;;;;;;2.53;1.70;;;;;;;-4.80;74.01;91608.05;1723709;80;21201;-73
2021/01/14 06:53:05;;;;;;;2.73;2.47;;;;;;;-4.79;73.81;91612.23;1747473;80;37536;-74
2021/01/14 06:55:33;;;;;;;2.80;2.50;;;;;;;-4.78;73.59;91603.92;1768323;80;21227;-74
2021/01/14 06:58:08;;;;;;;2.83;2.47;;;;;;;-4.77;73.40;91610.78;1775333;79;22079;-73
2021/01/14 07:00:50;;;;;;;3.17;2.20;;;;;;;-4.74;73.31;91602.67;1734185;82;21230;-75
2021/01/14 07:03:18;;;;;;;2.53;2.17;;;;;;;-4.72;72.54;91601.23;1701958;81;21262;-73
2021/01/14 07:05:58;;;;;;;3.23;2.30;;;;;;;-4.68;71.58;91606.05;1693622;83;21227;-75
2021/01/14 07:08:40;;;;;;;3.67;2.57;;;;;;;-4.64;71.74;91608.23;1714751;81;21143;-74
2021/01/14 07:11:18;;;;;;;3.20;2.50;;;;;;;-4.58;72.21;91611.96;1771579;79;21373;-74
2021/01/14 07:13:50;;;;;;;3.90;2.60;;;;;;;-4.54;72.14;91610.92;1703153;84;21705;-73
2021/01/14 07:16:22;;;;;;;3.70;2.42;;;;;;;-4.47;71.67;91618.27;1765456;80;21188;-73
2021/01/14 07:18:50;;;;;;;3.17;2.67;;;;;;;;;;1726807;80;21144;-73
2021/01/14 07:21:39;;;;;;;3.73;2.93;;;;;;;-4.37;71.63;91612.41;1749815;81;21138;-76
2021/01/14 07:24:30;;;;;;;3.03;2.50;;;;;;;-4.32;71.77;91613.48;1738711;80;21421;-77
2021/01/14 07:26:59;;;;;;;4.10;2.90;;;;;;;-4.27;71.53;91619.08;1723838;82;21178;-74
2021/01/14 07:29:29;;;;;;;3.47;2.47;;;;;;;-4.22;71.53;91619.56;1738449;80;21435;-74
2021/01/14 07:31:59;;;;;;;6.17;3.07;;;;;;;-4.18;71.09;91615.66;1766841;81;21119;-74
2021/01/14 07:34:45;;;;;;;6.20;3.47;;;;;;;-4.14;71.07;91617.83;1774160;78;22008;-76
2021/01/14 07:37:18;;;;;;;6.10;3.25;;;;;;;-4.11;71.30;91613.16;1749605;78;22709;-74
2021/01/14 07:39:53;;;;;;;5.17;2.63;;;;;;;-4.07;70.65;91621.97;1733932;82;21170;-74
2021/01/14 07:42:32;;;;;;;3.07;2.77;;;;;;;-4.04;70.62;91617.85;1755296;81;21231;-75
2021/01/14 07:45:06;;;;;;;3.63;2.60;;;;;;;-4.02;70.64;91624.36;1732159;81;21201;-75
2021/01/14 07:47:37;;;;;;;4.03;2.90;;;;;;;-3.97;70.79;91623.31;1744971;81;21215;-74
2021/01/14 07:50:07;;;;;;;4.60;3.30;;;;;;;-3.94;70.81;91629.27;1717072;82;21392;-73
2021/01/14 07:52:35;;;;;;;3.30;2.70;;;;;;;-3.89;71.07;91630.87;1646266;86;21227;-73
2021/01/14 07:55:09;;;;;;;3.60;2.70;;;;;;;-3.86;71.39;91632.27;1736457;81;21174;-73
2021/01/14 07:57:48;;;;;;;3.97;2.83;;;;;;;-3.81;71.55;91628.56;1771741;79;21191;-73
2021/01/14 08:00:23;;;;;;;4.07;2.63;;;;;;;-3.76;71.24;91622.42;1788055;78;21108;-75
2021/01/14 08:03:11;;;;;;;;;;;;;;;-3.70;71.08;91626.88;1738549;81;22668;-77
2021/01/14 08:06:03;;;;;;;3.40;2.93;;;;;;;-3.64;71.19;91630.05;1766965;79;20227;-76
2021/01/14 08:08:37;;;;;;;4.03;2.80;;;;;;;-3.56;71.24;91635.14;1779761;80;21649;-76
2021/01/14 08:11:14;;;;;;;6.27;3.20;;;;;;;-3.50;71.17;91636.41;1720884;83;21736;-76
2021/01/14 08:14:10;;;;;;;5.33;3.37;;;;;;;-3.46;71.05;91633.78;1751988;81;21431;-77
2021/01/14 08:16:41;;;;;;;4.92;2.67;;;;;;;-3.44;70.80;91631.56;1736371;82;21465;-79
2021/01/14 08:19:32;;;;;;;3.93;3.17;;;;;;;-3.43;70.76;91640.50;1721948;82;21208;-76
2021/01/14 08:22:06;;;;;;;4.73;2.93;;;;;;;-3.43;70.79;91636.52;1720981;82;21254;-78
2021/01/14 08:24:55;;;;;;;3.93;2.60;;;;;;;-3.40;70.87;91630.30;1729360;81;21136;-78
2021/01/14 08:27:32;;;;;;;6.60;3.20;;;;;;;-3.37;70.66;91640.23;1771921;79;21173;-77
2021/01/14 08:30:16;;;;;;;2.67;2.43;;;;;;;-3.34;70.67;91637.64;1784072;80;21310;-76
2021/01/14 08:32:46;;;;;;;2.60;2.20;;;;;;;-3.29;69.42;91642.66;1738183;82;21263;-75
2021/01/14 08:35:23;;;;;;;2.27;2.07;;;;;;;-3.24;68.76;91645.59;1777530;80;21210;-74
2021/01/14 08:38:05;;;;;;;2.27;1.97;;;;;;;-3.25;67.82;91643.49;1715278;83;21169;-74
2021/01/14 08:40:34;;;;;;;2.60;1.93;;;;;;;-3.26;67.62;91642.53;1764867;80;21696;-74
2021/01/14 08:43:14;;;;;;;3.30;2.87;;;;;;;-3.32;66.48;91631.40;1787259;78;21357;-75
2021/01/14 08:45:54;;;;;;;4.73;3.20;;;;;;;-3.32;67.66;91635.95;1735985;82;21069;-76
2021/01/14 08:48:32;;;;;;;3.03;2.60;;;;;;;-3.24;67.75;91641.59;1702450;82;21139;-77
2021/01/14 08:51:03;;;;;;;3.33;2.60;;;;;;;-3.18;67.16;91646.84;1758485;79;21552;-76
2021/01/14 08:53:41;;;;;;;2.83;2.30;;;;;;;-3.14;67.42;91641.03;1794679;79;21192;-75
2021/01/14 08:56:31;;;;;;;3.27;2.27;;;;;;;-3.03;67.51;91638.56;1746715;82;21350;-74
2021/01/14 08:59:16;;;;;;;2.97;2.07;;;;;;;-2.91;67.41;91634.96;1841253;77;21440;-76
2021/01/14 09:01:43;;;;;;;2.73;2.33;;;;;;;-2.82;66.17;91634.16;1844154;77;21162;-75
2021/01/14 09:04:11;;;;;;;4.40;2.70;;;;;;;-2.79;67.32;91630.79;1844218;77;21186;-74
2021/01/14 09:06:40;;;;;;;2.50;2.30;;;;;;;-2.71;67.48;91637.22;1783919;77;22032;-75
2021/01/14 09:09:15;;;;;;;2.63;2.40;;;;;;;-2.64;67.19;91629.89;1796569;79;21371;-75
2021/01/14 09:11:43;;;;;;;3.00;2.37;;;;;;;-2.61;67.34;91633.75;1792951;78;21142;-75
2021/01/14 09:14:12;;;;;;;2.67;2.37;;;;;;;-2.59;67.34;91632.27;1774357;80;21109;-75
2021/01/14 09:16:42;;;;;;;7.23;4.53;;;;;;;-2.50;67.36;91634.68;1772147;79;21160;-75
2021/01/14 09:19:19;;;;;;;3.33;2.40;;;;;;;-2.41;67.32;91632.52;1806244;78;21377;-75
2021/01/14 09:21:48;;;;;;;3.57;2.60;;;;;;;-2.34;66.96;91636.62;1831456;76;21423;-75
2021/01/14 09:24:18;;;;;;;3.80;2.73;;;;;;;-2.29;66.67;91637.67;1815141;78;21168;-75
2021/01/14 09:26:49;;;;;;;3.20;2.90;;;;;;;-2.25;66.59;91631.84;1816834;78;21147;-76
2021/01/14 09:29:19;;;;;;;4.27;2.67;;;;;;;-2.23;66.46;91626.14;1817757;78;21204;-75
2021/01/14 09:31:47;;;;;;;5.55;3.22;;;;;;;-2.20;66.40;91630.19;1774005;80;21140;-76
2021/01/14 09:34:14;;;;;;;3.97;2.60;;;;;;;-2.21;66.75;91627.89;1770971;80;21803;-76
2021/01/14 09:36:42;;;;;;;2.30;2.10;;;;;;;-2.21;66.66;91630.55;1795031;79;21195;-73
2021/01/14 09:39:15;;;;;;;3.53;2.50;;;;;;;-2.26;66.41;91625.52;1805078;79;21210;-77
2021/01/14 09:41:42;;;;;;;3.40;2.57;;;;;;;-2.30;66.81;91622.80;1813311;79;21017;-74
2021/01/14 09:44:13;;;;;;;3.53;2.40;;;;;;;-2.28;66.69;91625.89;1813789;77;21224;-76
2021/01/14 09:46:45;;;;;;;4.17;3.03;;;;;;;-2.25;66.33;91621.75;1809169;78;22085;-76
2021/01/14 09:49:22;;;;;;;2.77;2.40;;;;;;;-2.22;66.74;91624.47;1808980;79;21395;-75
2021/01/14 09:51:49;;;;;;;6.65;2.45;;;;;;;-2.15;67.10;91623.78;1783215;78;21014;-75
2021/01/14 09:54:17;;;;;;;3.30;2.40;;;;;;;-2.09;66.93;91629.58;1772929;80;21156;-75
2021/01/14 09:56:51;;;;;;;2.50;2.17;;;;;;;-2.07;66.57;91626.77;1783076;79;21108;-78
2021/01/14 09:59:43;;;;;;;3.87;2.80;;;;;;;-2.05;66.32;91625.83;1808040;76;21442;-75
2021/01/14 10:02:24;;;;;;;3.13;2.83;;;;;;;-2.10;66.32;91629.38;1837304;78;21155;-77
2021/01/14 10:04:56;;;;;;;3.57;2.37;;;;;;;-2.16;66.24;91629.47;1837853;78;21095;-76
2021/01/14 10:07:25;;;;;;;2.47;2.27;;;;;;;-2.18;66.48;91626.39;1765652;79;21445;-76
2021/01/14 10:09:55;;;;;;;3.77;3.03;;;;;;;-2.16;66.62;91622.81;1791134;79;21703;-78
2021/01/14 10:12:24;;;;;;;2.73;2.47;;;;;;;-2.09;66.69;91621.59;1805214;78;21415;-76
2021/01/14 10:15:14;;;;;;;2.13;1.93;;;;;;;-1.96;66.45;91626.89;1819088;78;21658;-76
2021/01/14 10:17:42;;;;;;;3.00;2.58;;;;;;;-1.91;66.47;91619.17;1796412;78;21605;-74
2021/01/14 10:20:15;;;;;;;2.83;2.30;;;;;;;-1.88;66.35;91618.42;1783802;77;21199;-74
2021/01/14 10:22:52;;;;;;;4.00;3.23;;;;;;;-1.85;66.33;91617.14;1832264;78;21136;-74
2021/01/14 10:25:26;;;;;;;2.83;2.60;;;;;;;-1.81;66.52;91621.95;1797082;78;21997;-74
2021/01/14 10:28:06;;;;;;;5.10;3.57;;;;;;;-1.79;66.12;91618.38;1820285;77;22425;-75
2021/01/14 10:30:40;;;;;;;2.67;2.47;;;;;;;-1.76;66.60;91613.66;1832387;78;21115;-76
2021/01/14 10:33:08;;;;;;;3.73;2.43;;;;;;;-1.71;66.75;91615.23;1834317;76;21221;-76
2021/01/14 10:35:36;;;;;;;2.22;2.02;;;;;;;-1.68;66.46;91613.75;1821525;77;21445;-76
2021/01/14 10:38:10;;;;;;;2.57;2.03;;;;;;;-1.65;66.46;91612.45;1794214;78;21421;-75
2021/01/14 10:40:48;;;;;;;3.92;2.85;;;;;;;-1.60;65.90;91607.36;1776524;80;21144;-73
2021/01/14 10:43:33;;;;;;;2.27;2.07;;;;;;;-1.60;65.82;91606.03;1771266;80;21365;-75
2021/01/14 10:46:01;;;;;;;3.40;2.90;;;;;;;-1.62;64.96;91601.05;1770144;80;21181;-73
2021/01/14 10:48:39;;;;;;;3.17;2.60;;;;;;;-1.67;65.05;91609.94;1767956;80;21174;-74
2021/01/14 10:51:08;;;;;;;3.00;2.72;;;;;;;-1.72;65.11;91611.03;1759866;80;22220;-75
2021/01/14 10:53:41;;;;;;;3.27;2.62;;;;;;;-1.76;65.02;91604.90;1747845;82;21140;-72
2021/01/14 10:56:10;;;;;;;2.50;2.30;;;;;;;-1.84;65.51;91600.59;1752881;82;21118;-73
2021/01/14 10:58:40;;;;;;;3.47;2.60;;;;;;;-1.89;66.15;91607.00;1751261;80;21222;-73
2021/01/14 11:01:21;;;;;;;3.95;2.75;;;;;;;-1.90;65.81;91606.81;1748780;81;21250;-73
2021/01/14 11:03:49;;;;;;;3.10;2.80;;;;;;;-1.91;65.94;91603.95;1748495;81;21509;-76
2021/01/14 11:06:33;;;;;;;3.60;2.40;;;;;;;-1.93;65.99;91609.42;1748490;81;21206;-73
2021/01/14 11:09:07;;;;;;;3.70;2.17;;;;;;;-1.96;66.21;91597.05;1736652;81;21191;-75
2021/01/14 11:11:35;;;;;;;3.67;2.47;;;;;;;-1.93;66.55;91600.10;1748487;81;21186;-74
2021/01/14 11:14:03;;;;;;;3.45;2.35;;;;;;;-1.92;66.53;91594.40;1748683;81;21215;-74
2021/01/14 11:16:30;;;;;;;3.60;2.70;;;;;;;-1.87;66.20;91597.34;1749943;81;21776;-74
2021/01/14 11:18:59;;;;;;;2.10;1.90;;;;;;;-1.83;66.63;91594.91;1753346;81;21174;-74
2021/01/14 11:21:32;;;;;;;3.20;2.90;;;;;;;-1.79;66.22;91593.63;1755681;80;21147;-74
2021/01/14 11:24:00;;;;;;;5.93;3.67;;;;;;;-1.79;65.87;91595.72;1752548;80;21102;-73
2021/01/14 11:26:28;;;;;;;5.43;3.87;;;;;;;-1.78;66.34;91595.16;1752235;80;21218;-73
2021/01/14 11:28:56;;;;;;;6.27;3.87;;;;;;;-1.74;66.21;91584.73;1752883;81;22316;-74
2021/01/14 11:31:25;;;;;;;3.97;3.27;;;;;;;-1.72;66.13;91587.81;1824770;77;21175;-75
2021/01/14 11:33:52;;;;;;;3.20;2.90;;;;;;;-1.71;65.99;91590.67;1816351;77;21181;-75
2021/01/14 11:36:21;;;;;;;3.25;2.58;;;;;;;-1.76;65.97;91580.34;1797446;78;21176;-74
2021/01/14 11:38:49;;;;;;;3.30;2.60;;;;;;;-1.74;66.36;91585.30;1854727;77;21147;-75
2021/01/14 11:41:18;;;;;;;4.53;3.30;;;;;;;-1.76;66.37;91584.34;1842866;77;21367;-75
2021/01/14 11:43:45;;;;;;;7.20;4.63;;;;;;;-1.75;66.59;91581.88;1845644;76;21100;-75
2021/01/14 11:46:24;;;;;;;5.97;3.62;;;;;;;-1.72;67.07;91581.72;1853694;75;21505;-75
2021/01/14 11:48:52;;;;;;;3.75;2.95;;;;;;;-1.73;66.69;91587.63;1834917;77;21132;-76
2021/01/14 11:51:20;;;;;;;3.80;2.63;;;;;;;-1.76;66.81;91582.25;1913676;74;21197;-74
2021/01/14 11:53:48;;;;;;;2.35;2.15;;;;;;;-1.77;66.27;91584.15;1896023;74;21393;-75
2021/01/14 11:56:17;;;;;;;3.47;2.43;;;;;;;-1.81;66.79;91588.64;1842243;77;21191;-74
2021/01/14 11:58:44;;;;;;;2.47;2.27;;;;;;;-1.82;67.51;91581.78;1841914;77;21674;-76